sensor_id;sensor_type;location;lat;lon;timestamp;pressure;altitude;pressure_sealevel;temperature;humidity
48424;BME280;34232;42.502;26.014;2023-02-08T00:00:24;101889.13;;;1.37;46.48
48424;BME280;34232;42.502;26.014;2023-02-08T00:02:50;101894.28;;;1.40;46.51
48424;BME280;34232;42.502;26.014;2023-02-08T00:05:16;101891.72;;;1.39;46.44
48424;BME280;34232;42.502;26.014;2023-02-08T00:07:42;101896.84;;;1.42;46.25
48424;BME280;34232;42.502;26.014;2023-02-08T00:10:07;101895.00;;;1.49;46.76
48424;BME280;34232;42.502;26.014;2023-02-08T00:12:35;101887.28;;;1.46;47.17
48424;BME280;34232;42.502;26.014;2023-02-08T00:15:00;101897.59;;;1.49;46.72
48424;BME280;34232;42.502;26.014;2023-02-08T00:17:26;101904.50;;;1.50;45.70
48424;BME280;34232;42.502;26.014;2023-02-08T00:19:51;101905.41;;;1.47;45.80
48424;BME280;34232;42.502;26.014;2023-02-08T00:22:17;101906.25;;;1.48;45.55
48424;BME280;34232;42.502;26.014;2023-02-08T00:24:42;101912.38;;;1.45;46.04
48424;BME280;34232;42.502;26.014;2023-02-08T00:27:08;101915.91;;;1.41;45.69
48424;BME280;34232;42.502;26.014;2023-02-08T00:29:33;101908.13;;;1.39;45.17
48424;BME280;34232;42.502;26.014;2023-02-08T00:31:58;101909.75;;;1.47;45.39
48424;BME280;34232;42.502;26.014;2023-02-08T00:34:24;101920.06;;;1.50;45.86
48424;BME280;34232;42.502;26.014;2023-02-08T00:36:49;101909.75;;;1.47;45.72
48424;BME280;34232;42.502;26.014;2023-02-08T00:39:15;101898.47;;;1.49;45.86
48424;BME280;34232;42.502;26.014;2023-02-08T00:41:40;101907.84;;;1.58;45.72
48424;BME280;34232;42.502;26.014;2023-02-08T00:44:05;101902.69;;;1.56;45.34
48424;BME280;34232;42.502;26.014;2023-02-08T00:46:31;101909.69;;;1.50;45.67
48424;BME280;34232;42.502;26.014;2023-02-08T00:48:56;101902.03;;;1.42;45.86
48424;BME280;34232;42.502;26.014;2023-02-08T00:51:22;101900.38;;;1.38;45.74
48424;BME280;34232;42.502;26.014;2023-02-08T00:53:47;101887.47;;;1.32;46.63
48424;BME280;34232;42.502;26.014;2023-02-08T00:56:13;101902.28;;;1.25;46.85
48424;BME280;34232;42.502;26.014;2023-02-08T00:58:39;101891.06;;;1.23;47.22
48424;BME280;34232;42.502;26.014;2023-02-08T01:01:06;101893.78;;;1.14;47.55
48424;BME280;34232;42.502;26.014;2023-02-08T01:03:37;101905.06;;;1.13;47.75
48424;BME280;34232;42.502;26.014;2023-02-08T01:06:06;101896.44;;;1.11;47.68
48424;BME280;34232;42.502;26.014;2023-02-08T01:08:32;101897.34;;;1.07;47.90
48424;BME280;34232;42.502;26.014;2023-02-08T01:11:13;101897.38;;;1.05;48.59
48424;BME280;34232;42.502;26.014;2023-02-08T01:13:39;101891.34;;;1.03;48.37
48424;BME280;34232;42.502;26.014;2023-02-08T01:16:12;101897.59;;;0.90;48.78
48424;BME280;34232;42.502;26.014;2023-02-08T01:18:41;101896.03;;;0.76;48.57
48424;BME280;34232;42.502;26.014;2023-02-08T01:21:10;101904.66;;;0.78;49.15
48424;BME280;34232;42.502;26.014;2023-02-08T01:23:36;101917.81;;;0.59;49.09
48424;BME280;34232;42.502;26.014;2023-02-08T01:26:02;101921.28;;;0.58;49.37
48424;BME280;34232;42.502;26.014;2023-02-08T01:28:28;101928.41;;;0.38;49.97
48424;BME280;34232;42.502;26.014;2023-02-08T01:30:53;101936.16;;;0.43;51.01
48424;BME280;34232;42.502;26.014;2023-02-08T01:33:19;101938.59;;;0.53;50.92
48424;BME280;34232;42.502;26.014;2023-02-08T01:35:44;101924.00;;;0.48;49.98
48424;BME280;34232;42.502;26.014;2023-02-08T01:38:10;101923.94;;;0.54;50.21
48424;BME280;34232;42.502;26.014;2023-02-08T01:40:35;101908.38;;;0.54;50.26
48424;BME280;34232;42.502;26.014;2023-02-08T01:43:00;101931.50;;;0.70;50.50
48424;BME280;34232;42.502;26.014;2023-02-08T01:45:30;101941.78;;;0.80;50.23
48424;BME280;34232;42.502;26.014;2023-02-08T01:48:02;101928.84;;;0.78;50.45
48424;BME280;34232;42.502;26.014;2023-02-08T01:50:33;101931.31;;;0.86;50.78
48424;BME280;34232;42.502;26.014;2023-02-08T01:53:00;101929.59;;;0.85;50.51
48424;BME280;34232;42.502;26.014;2023-02-08T01:55:30;101940.75;;;0.93;51.16
48424;BME280;34232;42.502;26.014;2023-02-08T01:57:59;101928.75;;;0.84;51.02
48424;BME280;34232;42.502;26.014;2023-02-08T02:00:26;101931.31;;;0.86;51.46
48424;BME280;34232;42.502;26.014;2023-02-08T02:02:54;101928.88;;;0.75;51.93
48424;BME280;34232;42.502;26.014;2023-02-08T02:05:24;101938.22;;;0.87;52.20
48424;BME280;34232;42.502;26.014;2023-02-08T02:07:52;101931.28;;;0.89;52.30
48424;BME280;34232;42.502;26.014;2023-02-08T02:10:27;101939.03;;;0.92;52.28
48424;BME280;34232;42.502;26.014;2023-02-08T02:12:54;101939.03;;;0.93;52.18
48424;BME280;34232;42.502;26.014;2023-02-08T02:15:21;101938.06;;;0.99;52.21
48424;BME280;34232;42.502;26.014;2023-02-08T02:17:46;101939.72;;;1.06;52.31
48424;BME280;34232;42.502;26.014;2023-02-08T02:34:39;101966.88;;;0.76;53.56
48424;BME280;34232;42.502;26.014;2023-02-08T02:39:45;101972.28;;;0.53;54.58
48424;BME280;34232;42.502;26.014;2023-02-08T02:42:35;101978.38;;;0.49;54.19
48424;BME280;34232;42.502;26.014;2023-02-08T02:45:34;101962.03;;;0.43;55.03
48424;BME280;34232;42.502;26.014;2023-02-08T02:48:11;101980.91;;;0.54;55.05
48424;BME280;34232;42.502;26.014;2023-02-08T02:50:47;101981.88;;;0.48;54.80
48424;BME280;34232;42.502;26.014;2023-02-08T02:56:25;101974.13;;;0.42;55.55
48424;BME280;34232;42.502;26.014;2023-02-08T02:58:55;101974.09;;;0.47;56.37
48424;BME280;34232;42.502;26.014;2023-02-08T03:01:24;101976.75;;;0.39;57.01
48424;BME280;34232;42.502;26.014;2023-02-08T03:03:54;101985.41;;;0.38;56.93
48424;BME280;34232;42.502;26.014;2023-02-08T03:06:35;101983.66;;;0.40;57.14
48424;BME280;34232;42.502;26.014;2023-02-08T03:12:37;101983.69;;;0.34;58.04
48424;BME280;34232;42.502;26.014;2023-02-08T03:15:45;101988.81;;;0.43;58.70
48424;BME280;34232;42.502;26.014;2023-02-08T03:21:24;102004.25;;;0.52;58.58
48424;BME280;34232;42.502;26.014;2023-02-08T03:26:34;102005.91;;;0.62;59.06
48424;BME280;34232;42.502;26.014;2023-02-08T03:31:58;101960.34;;;0.39;58.29
48424;BME280;34232;42.502;26.014;2023-02-08T03:34:34;102004.16;;;0.64;57.79
48424;BME280;34232;42.502;26.014;2023-02-08T03:37:09;102005.09;;;0.56;57.95
48424;BME280;34232;42.502;26.014;2023-02-08T03:39:38;101993.88;;;0.54;57.55
48424;BME280;34232;42.502;26.014;2023-02-08T03:42:20;102005.03;;;0.62;57.78
48424;BME280;34232;42.502;26.014;2023-02-08T03:44:54;102005.91;;;0.59;57.74
48424;BME280;34232;42.502;26.014;2023-02-08T03:47:24;102002.50;;;0.54;58.13
48424;BME280;34232;42.502;26.014;2023-02-08T03:49:53;101967.22;;;0.43;58.17
48424;BME280;34232;42.502;26.014;2023-02-08T03:52:20;101999.06;;;0.52;58.20
48424;BME280;34232;42.502;26.014;2023-02-08T03:54:48;102006.06;;;0.44;58.63
48424;BME280;34232;42.502;26.014;2023-02-08T03:57:22;102016.47;;;0.40;59.15
48424;BME280;34232;42.502;26.014;2023-02-08T04:00:10;102023.31;;;0.48;58.95
48424;BME280;34232;42.502;26.014;2023-02-08T04:02:39;102021.53;;;0.50;58.97
48424;BME280;34232;42.502;26.014;2023-02-08T04:05:10;102028.44;;;0.51;58.80
48424;BME280;34232;42.502;26.014;2023-02-08T04:07:36;102026.63;;;0.62;58.17
48424;BME280;34232;42.502;26.014;2023-02-08T04:10:03;102030.97;;;0.60;58.69
48424;BME280;34232;42.502;26.014;2023-02-08T04:12:28;102025.75;;;0.63;58.08
48424;BME280;34232;42.502;26.014;2023-02-08T04:14:54;102033.53;;;0.63;58.06
48424;BME280;34232;42.502;26.014;2023-02-08T04:17:20;102033.53;;;0.63;58.00
48424;BME280;34232;42.502;26.014;2023-02-08T04:19:45;102023.22;;;0.57;58.58
48424;BME280;34232;42.502;26.014;2023-02-08T04:22:10;102052.41;;;0.75;58.08
48424;BME280;34232;42.502;26.014;2023-02-08T04:24:36;102051.53;;;0.76;58.40
48424;BME280;34232;42.502;26.014;2023-02-08T04:27:01;102060.16;;;0.81;58.21
48424;BME280;34232;42.502;26.014;2023-02-08T04:29:27;102048.97;;;0.73;58.40
48424;BME280;34232;42.502;26.014;2023-02-08T04:31:52;102054.16;;;0.71;58.64
48424;BME280;34232;42.502;26.014;2023-02-08T04:34:17;102064.34;;;0.91;58.21
48424;BME280;34232;42.502;26.014;2023-02-08T04:36:43;102068.69;;;0.87;58.37
48424;BME280;34232;42.502;26.014;2023-02-08T04:39:08;102074.78;;;0.82;57.91
48424;BME280;34232;42.502;26.014;2023-02-08T04:41:34;102071.41;;;0.77;58.06
48424;BME280;34232;42.502;26.014;2023-02-08T04:43:59;102070.53;;;0.78;58.17
48424;BME280;34232;42.502;26.014;2023-02-08T04:46:25;102059.34;;;0.73;58.31
48424;BME280;34232;42.502;26.014;2023-02-08T04:48:50;102071.44;;;0.74;58.50
48424;BME280;34232;42.502;26.014;2023-02-08T04:51:15;102062.13;;;0.51;58.49
48424;BME280;34232;42.502;26.014;2023-02-08T04:53:41;102073.41;;;0.47;58.64
48424;BME280;34232;42.502;26.014;2023-02-08T04:56:06;102075.19;;;0.39;59.31
48424;BME280;34232;42.502;26.014;2023-02-08T04:58:32;102082.09;;;0.37;59.12
48424;BME280;34232;42.502;26.014;2023-02-08T05:00:57;102093.31;;;0.36;59.48
48424;BME280;34232;42.502;26.014;2023-02-08T05:03:22;102083.81;;;0.38;59.77
48424;BME280;34232;42.502;26.014;2023-02-08T05:05:58;102101.06;;;0.45;59.48
48424;BME280;34232;42.502;26.014;2023-02-08T05:08:24;102110.56;;;0.40;59.16
48424;BME280;34232;42.502;26.014;2023-02-08T05:10:50;102114.03;;;0.38;59.04
48424;BME280;34232;42.502;26.014;2023-02-08T05:13:15;102110.56;;;0.45;58.98
48424;BME280;34232;42.502;26.014;2023-02-08T05:15:41;102113.94;;;0.51;59.21
48424;BME280;34232;42.502;26.014;2023-02-08T05:18:06;102113.84;;;0.65;58.99
48424;BME280;34232;42.502;26.014;2023-02-08T05:20:31;102105.25;;;0.57;58.69
48424;BME280;34232;42.502;26.014;2023-02-08T05:22:58;102117.25;;;0.68;58.70
48424;BME280;34232;42.502;26.014;2023-02-08T05:25:23;102109.47;;;0.72;58.13
48424;BME280;34232;42.502;26.014;2023-02-08T05:27:49;102106.97;;;0.62;57.90
48424;BME280;34232;42.502;26.014;2023-02-08T05:30:14;102108.72;;;0.59;57.38
48424;BME280;34232;42.502;26.014;2023-02-08T05:32:40;102110.44;;;0.58;57.51
48424;BME280;34232;42.502;26.014;2023-02-08T05:35:06;102109.72;;;0.38;56.78
48424;BME280;34232;42.502;26.014;2023-02-08T05:37:31;102111.56;;;0.21;57.06
48424;BME280;34232;42.502;26.014;2023-02-08T05:39:57;102119.41;;;0.10;57.69
48424;BME280;34232;42.502;26.014;2023-02-08T05:42:22;102119.44;;;0.04;58.08
48424;BME280;34232;42.502;26.014;2023-02-08T05:44:47;102120.38;;;-0.08;58.21
48424;BME280;34232;42.502;26.014;2023-02-08T05:47:13;102120.41;;;-0.14;58.15
48424;BME280;34232;42.502;26.014;2023-02-08T05:49:38;102105.84;;;-0.33;58.20
48424;BME280;34232;42.502;26.014;2023-02-08T05:52:04;102125.63;;;-0.26;57.81
48424;BME280;34232;42.502;26.014;2023-02-08T05:54:29;102101.56;;;-0.40;57.56
48424;BME280;34232;42.502;26.014;2023-02-08T05:56:55;102129.94;;;-0.17;58.04
48424;BME280;34232;42.502;26.014;2023-02-08T05:59:20;102134.19;;;-0.09;57.17
48424;BME280;34232;42.502;26.014;2023-02-08T06:01:45;102140.22;;;-0.10;57.72
48424;BME280;34232;42.502;26.014;2023-02-08T06:04:11;102144.53;;;-0.12;57.45
48424;BME280;34232;42.502;26.014;2023-02-08T06:06:36;102160.06;;;-0.03;57.13
48424;BME280;34232;42.502;26.014;2023-02-08T06:09:02;102159.19;;;-0.02;57.08
48424;BME280;34232;42.502;26.014;2023-02-08T06:11:27;102161.72;;;0.08;57.61
48424;BME280;34232;42.502;26.014;2023-02-08T06:13:53;102168.59;;;0.15;58.10
48424;BME280;34232;42.502;26.014;2023-02-08T06:16:18;102156.50;;;0.14;58.09
48424;BME280;34232;42.502;26.014;2023-02-08T06:18:43;102167.75;;;0.07;57.63
48424;BME280;34232;42.502;26.014;2023-02-08T06:21:09;102170.34;;;0.10;56.58
48424;BME280;34232;42.502;26.014;2023-02-08T06:23:37;102170.34;;;0.08;56.23
48424;BME280;34232;42.502;26.014;2023-02-08T06:26:02;102168.69;;;-0.02;56.46
48424;BME280;34232;42.502;26.014;2023-02-08T06:28:28;102161.78;;;-0.03;56.73
48424;BME280;34232;42.502;26.014;2023-02-08T06:30:53;102172.13;;;0.00;57.31
48424;BME280;34232;42.502;26.014;2023-02-08T06:33:19;102172.09;;;0.02;57.48
48424;BME280;34232;42.502;26.014;2023-02-08T06:35:50;102160.91;;;-0.02;56.91
48424;BME280;34232;42.502;26.014;2023-02-08T06:38:16;102168.69;;;-0.01;56.83
48424;BME280;34232;42.502;26.014;2023-02-08T06:40:41;102166.97;;;-0.11;56.56
48424;BME280;34232;42.502;26.014;2023-02-08T06:43:07;102161.81;;;-0.14;56.93
48424;BME280;34232;42.502;26.014;2023-02-08T06:45:32;102174.75;;;-0.11;56.96
48424;BME280;34232;42.502;26.014;2023-02-08T06:47:57;102166.97;;;-0.11;57.06
48424;BME280;34232;42.502;26.014;2023-02-08T06:50:23;102174.72;;;-0.02;56.43
48424;BME280;34232;42.502;26.014;2023-02-08T06:52:48;102167.84;;;-0.09;56.88
48424;BME280;34232;42.502;26.014;2023-02-08T06:55:14;102182.44;;;0.06;56.12
48424;BME280;34232;42.502;26.014;2023-02-08T06:57:39;102181.56;;;0.09;56.36
48424;BME280;34232;42.502;26.014;2023-02-08T07:00:05;102178.03;;;0.19;56.53
48424;BME280;34232;42.502;26.014;2023-02-08T07:02:31;102184.91;;;0.29;54.99
48424;BME280;34232;42.502;26.014;2023-02-08T07:04:56;102178.00;;;0.32;54.80
48424;BME280;34232;42.502;26.014;2023-02-08T07:07:22;102190.03;;;0.37;54.58
48424;BME280;34232;42.502;26.014;2023-02-08T07:09:48;102186.53;;;0.47;54.27
48424;BME280;34232;42.502;26.014;2023-02-08T07:12:13;102190.78;;;0.55;53.25
48424;BME280;34232;42.502;26.014;2023-02-08T07:14:40;102197.59;;;0.65;52.78
48424;BME280;34232;42.502;26.014;2023-02-08T07:17:06;102179.53;;;0.61;51.56
48424;BME280;34232;42.502;26.014;2023-02-08T07:19:36;102204.47;;;0.74;51.41
48424;BME280;34232;42.502;26.014;2023-02-08T07:22:01;102199.25;;;0.79;50.47
48424;BME280;34232;42.502;26.014;2023-02-08T07:24:36;102201.78;;;0.88;50.47
48424;BME280;34232;42.502;26.014;2023-02-08T07:27:02;102195.56;;;1.07;50.04
48424;BME280;34232;42.502;26.014;2023-02-08T07:29:29;102198.91;;;1.18;48.70
48424;BME280;34232;42.502;26.014;2023-02-08T07:31:54;102202.16;;;1.42;49.32
48424;BME280;34232;42.502;26.014;2023-02-08T07:34:20;102211.53;;;1.56;48.02
48424;BME280;34232;42.502;26.014;2023-02-08T07:36:47;102209.75;;;1.61;47.11
48424;BME280;34232;42.502;26.014;2023-02-08T07:39:13;102206.19;;;1.68;46.36
48424;BME280;34232;42.502;26.014;2023-02-08T07:41:38;102221.75;;;1.71;47.42
48424;BME280;34232;42.502;26.014;2023-02-08T07:44:03;102228.53;;;1.80;46.36
48424;BME280;34232;42.502;26.014;2023-02-08T07:46:29;102213.81;;;1.82;45.31
48424;BME280;34232;42.502;26.014;2023-02-08T07:48:54;102222.41;;;1.90;44.66
48424;BME280;34232;42.502;26.014;2023-02-08T07:51:20;102226.63;;;1.96;45.12
48424;BME280;34232;42.502;26.014;2023-02-08T07:53:45;102228.47;;;1.88;45.34
48424;BME280;34232;42.502;26.014;2023-02-08T07:56:11;102217.19;;;1.90;45.05
48424;BME280;34232;42.502;26.014;2023-02-08T07:58:36;102231.03;;;1.92;45.51
48424;BME280;34232;42.502;26.014;2023-02-08T08:01:02;102238.75;;;1.97;45.38
48424;BME280;34232;42.502;26.014;2023-02-08T08:03:30;102237.66;;;2.15;44.81
48424;BME280;34232;42.502;26.014;2023-02-08T08:05:56;102223.63;;;2.29;44.42
48424;BME280;34232;42.502;26.014;2023-02-08T08:08:21;102235.47;;;2.50;43.61
48424;BME280;34232;42.502;26.014;2023-02-08T08:10:46;102253.56;;;2.58;43.46
48424;BME280;34232;42.502;26.014;2023-02-08T08:13:13;102247.41;;;2.63;44.03
48424;BME280;34232;42.502;26.014;2023-02-08T08:15:39;102245.69;;;2.62;43.34
48424;BME280;34232;42.502;26.014;2023-02-08T08:18:05;102250.81;;;2.68;43.17
48424;BME280;34232;42.502;26.014;2023-02-08T08:20:31;102247.06;;;2.86;42.76
48424;BME280;34232;42.502;26.014;2023-02-08T08:22:56;102249.53;;;2.94;42.80
48424;BME280;34232;42.502;26.014;2023-02-08T08:25:21;102266.19;;;2.82;42.16
48424;BME280;34232;42.502;26.014;2023-02-08T08:27:47;102259.63;;;2.58;41.30
48424;BME280;34232;42.502;26.014;2023-02-08T08:30:15;102262.31;;;2.51;42.47
48424;BME280;34232;42.502;26.014;2023-02-08T08:32:41;102263.88;;;2.64;42.64
48424;BME280;34232;42.502;26.014;2023-02-08T08:35:07;102265.50;;;2.71;40.97
48424;BME280;34232;42.502;26.014;2023-02-08T08:37:33;102266.38;;;2.71;41.17
48424;BME280;34232;42.502;26.014;2023-02-08T08:39:59;102254.06;;;2.83;41.36
48424;BME280;34232;42.502;26.014;2023-02-08T08:42:24;102267.94;;;2.81;40.55
48424;BME280;34232;42.502;26.014;2023-02-08T08:44:51;102261.75;;;2.90;40.31
48424;BME280;34232;42.502;26.014;2023-02-08T08:47:17;102249.34;;;3.07;40.32
48424;BME280;34232;42.502;26.014;2023-02-08T08:49:43;102265.47;;;3.29;39.21
48424;BME280;34232;42.502;26.014;2023-02-08T08:52:09;102266.91;;;3.45;39.75
48424;BME280;34232;42.502;26.014;2023-02-08T08:54:35;102259.63;;;3.66;38.80
48424;BME280;34232;42.502;26.014;2023-02-08T08:57:01;102264.59;;;3.78;38.93
48424;BME280;34232;42.502;26.014;2023-02-08T08:59:27;102266.44;;;3.73;38.45
48424;BME280;34232;42.502;26.014;2023-02-08T09:01:53;102266.44;;;3.73;38.17
48424;BME280;34232;42.502;26.014;2023-02-08T09:04:18;102276.69;;;3.80;38.29
48424;BME280;34232;42.502;26.014;2023-02-08T09:06:50;102267.06;;;3.85;38.42
48424;BME280;34232;42.502;26.014;2023-02-08T09:09:16;102260.00;;;3.91;38.07
48424;BME280;34232;42.502;26.014;2023-02-08T09:11:41;102276.28;;;4.03;38.29
48424;BME280;34232;42.502;26.014;2023-02-08T09:14:07;102271.47;;;4.25;38.96
48424;BME280;34232;42.502;26.014;2023-02-08T09:16:32;102269.34;;;4.44;37.52
48424;BME280;34232;42.502;26.014;2023-02-08T09:19:00;102275.28;;;4.52;37.25
48424;BME280;34232;42.502;26.014;2023-02-08T09:21:26;102281.75;;;4.73;37.32
48424;BME280;34232;42.502;26.014;2023-02-08T09:23:51;102268.56;;;4.79;36.44
48424;BME280;34232;42.502;26.014;2023-02-08T09:26:18;102265.94;;;4.80;35.82
48424;BME280;34232;42.502;26.014;2023-02-08T09:28:44;102278.22;;;4.75;36.06
48424;BME280;34232;42.502;26.014;2023-02-08T09:31:32;102275.94;;;4.99;36.19
48424;BME280;34232;42.502;26.014;2023-02-08T09:33:58;102279.06;;;5.14;35.93
48424;BME280;34232;42.502;26.014;2023-02-08T09:36:27;102268.56;;;5.16;36.11
48424;BME280;34232;42.502;26.014;2023-02-08T09:38:55;102280.81;;;5.14;35.68
48424;BME280;34232;42.502;26.014;2023-02-08T09:47:28;102289.94;;;4.95;37.08
48424;BME280;34232;42.502;26.014;2023-02-08T09:52:57;102288.13;;;5.35;37.22
48424;BME280;34232;42.502;26.014;2023-02-08T09:58:28;102280.03;;;5.44;36.60
48424;BME280;34232;42.502;26.014;2023-02-08T10:00:55;102267.88;;;5.43;36.33
48424;BME280;34232;42.502;26.014;2023-02-08T10:06:19;102282.69;;;5.77;36.02
48424;BME280;34232;42.502;26.014;2023-02-08T10:08:47;102285.28;;;5.77;35.67
48424;BME280;34232;42.502;26.014;2023-02-08T10:22:28;102261.06;;;4.65;37.32
48424;BME280;34232;42.502;26.014;2023-02-08T10:30:26;102253.47;;;4.91;36.86
48424;BME280;34232;42.502;26.014;2023-02-08T10:33:21;102245.19;;;5.11;37.16
48424;BME280;34232;42.502;26.014;2023-02-08T10:35:50;102238.88;;;5.20;36.96
48424;BME280;34232;42.502;26.014;2023-02-08T10:40:44;102236.25;;;5.54;36.93
48424;BME280;34232;42.502;26.014;2023-02-08T10:43:21;102239.41;;;5.67;36.55
48424;BME280;34232;42.502;26.014;2023-02-08T10:45:51;102235.91;;;5.68;36.07
48424;BME280;34232;42.502;26.014;2023-02-08T10:51:17;102237.06;;;5.56;36.28
48424;BME280;34232;42.502;26.014;2023-02-08T10:53:44;102228.97;;;5.67;35.89
48424;BME280;34232;42.502;26.014;2023-02-08T10:58:57;102230.09;;;5.56;35.18
48424;BME280;34232;42.502;26.014;2023-02-08T11:01:24;102223.00;;;5.61;35.34
48424;BME280;34232;42.502;26.014;2023-02-08T11:04:05;102235.22;;;5.93;36.06
48424;BME280;34232;42.502;26.014;2023-02-08T11:06:31;102242.97;;;5.96;35.25
48424;BME280;34232;42.502;26.014;2023-02-08T11:08:57;102243.78;;;5.99;35.33
48424;BME280;34232;42.502;26.014;2023-02-08T11:11:24;102234.38;;;5.91;35.59
48424;BME280;34232;42.502;26.014;2023-02-08T11:13:51;102238.69;;;5.94;35.49
48424;BME280;34232;42.502;26.014;2023-02-08T11:16:42;102244.59;;;6.01;35.21
48424;BME280;34232;42.502;26.014;2023-02-08T11:19:29;102241.84;;;6.05;35.47
48424;BME280;34232;42.502;26.014;2023-02-08T11:21:56;102224.78;;;5.92;35.26
48424;BME280;34232;42.502;26.014;2023-02-08T11:24:27;102235.56;;;5.80;34.84
48424;BME280;34232;42.502;26.014;2023-02-08T11:26:54;102234.94;;;5.70;35.60
48424;BME280;34232;42.502;26.014;2023-02-08T11:29:25;102233.19;;;5.71;34.96
48424;BME280;34232;42.502;26.014;2023-02-08T11:34:25;102222.25;;;5.56;35.18
48424;BME280;34232;42.502;26.014;2023-02-08T11:36:50;102221.97;;;5.35;34.88
48424;BME280;34232;42.502;26.014;2023-02-08T11:39:27;102212.13;;;5.44;34.99
48424;BME280;34232;42.502;26.014;2023-02-08T11:41:56;102210.16;;;5.20;34.77
48424;BME280;34232;42.502;26.014;2023-02-08T11:44:30;102205.91;;;5.16;35.23
48424;BME280;34232;42.502;26.014;2023-02-08T11:46:59;102203.25;;;5.19;36.24
48424;BME280;34232;42.502;26.014;2023-02-08T11:49:38;102198.66;;;5.27;35.93
48424;BME280;34232;42.502;26.014;2023-02-08T11:52:07;102196.84;;;5.31;35.92
48424;BME280;34232;42.502;26.014;2023-02-08T11:54:43;102198.66;;;5.27;35.87
48424;BME280;34232;42.502;26.014;2023-02-08T11:57:21;102161.91;;;5.02;36.01
48424;BME280;34232;42.502;26.014;2023-02-08T11:59:48;102201.63;;;5.13;35.79
48424;BME280;34232;42.502;26.014;2023-02-08T12:02:38;102204.19;;;5.15;35.53
48424;BME280;34232;42.502;26.014;2023-02-08T12:05:12;102203.06;;;5.25;36.45
48424;BME280;34232;42.502;26.014;2023-02-08T12:08:06;102188.63;;;5.12;35.69
48424;BME280;34232;42.502;26.014;2023-02-08T12:22:09;102221.53;;;4.82;36.85
48424;BME280;34232;42.502;26.014;2023-02-08T12:27:15;102227.63;;;4.82;37.11
48424;BME280;34232;42.502;26.014;2023-02-08T12:32:44;102204.88;;;4.87;37.07
48424;BME280;34232;42.502;26.014;2023-02-08T12:41:21;102221.53;;;4.82;37.95
48424;BME280;34232;42.502;26.014;2023-02-08T12:43:53;102229.09;;;4.92;38.34
48424;BME280;34232;42.502;26.014;2023-02-08T12:46:49;102224.00;;;4.88;37.80
48424;BME280;34232;42.502;26.014;2023-02-08T12:54:39;102249.69;;;4.28;38.04
48424;BME280;34232;42.502;26.014;2023-02-08T12:57:10;102243.03;;;4.14;38.87
48424;BME280;34232;42.502;26.014;2023-02-08T12:59:43;102243.84;;;4.18;38.39
48424;BME280;34232;42.502;26.014;2023-02-08T13:04:51;102227.41;;;4.14;38.37
48424;BME280;34232;42.502;26.014;2023-02-08T13:07:23;102249.63;;;4.32;38.59
48424;BME280;34232;42.502;26.014;2023-02-08T13:10:01;102243.31;;;4.42;38.23
48424;BME280;34232;42.502;26.014;2023-02-08T13:12:33;102252.81;;;4.45;38.37
48424;BME280;34232;42.502;26.014;2023-02-08T13:15:20;102249.94;;;4.57;38.37
48424;BME280;34232;42.502;26.014;2023-02-08T13:23:21;102252.41;;;4.63;38.44
48424;BME280;34232;42.502;26.014;2023-02-08T13:25:53;102247.47;;;4.51;38.46
48424;BME280;34232;42.502;26.014;2023-02-08T13:28:22;102250.22;;;4.43;39.21
48424;BME280;34232;42.502;26.014;2023-02-08T13:31:02;102242.78;;;4.27;39.19
48424;BME280;34232;42.502;26.014;2023-02-08T13:33:54;102247.16;;;4.25;39.82
48424;BME280;34232;42.502;26.014;2023-02-08T13:36:33;102248.44;;;4.05;39.97
48424;BME280;34232;42.502;26.014;2023-02-08T13:39:01;102247.78;;;3.94;41.00
48424;BME280;34232;42.502;26.014;2023-02-08T13:41:28;102241.97;;;3.80;41.24
48424;BME280;34232;42.502;26.014;2023-02-08T13:46:25;102251.50;;;3.81;40.55
48424;BME280;34232;42.502;26.014;2023-02-08T13:48:56;102257.47;;;3.88;39.76
48424;BME280;34232;42.502;26.014;2023-02-08T13:56:43;102250.69;;;3.79;39.03
48424;BME280;34232;42.502;26.014;2023-02-08T14:04:42;102254.31;;;3.72;40.20
48424;BME280;34232;42.502;26.014;2023-02-08T14:09:47;102253.53;;;3.65;41.34
48424;BME280;34232;42.502;26.014;2023-02-08T14:15:04;102254.63;;;3.54;40.72
48424;BME280;34232;42.502;26.014;2023-02-08T14:17:29;102247.97;;;3.37;40.75
48424;BME280;34232;42.502;26.014;2023-02-08T14:20:05;102253.13;;;3.40;41.13
48424;BME280;34232;42.502;26.014;2023-02-08T14:22:37;102258.22;;;3.46;41.10
48424;BME280;34232;42.502;26.014;2023-02-08T14:25:07;102261.63;;;3.51;41.42
48424;BME280;34232;42.502;26.014;2023-02-08T14:27:42;102256.53;;;3.42;41.64
48424;BME280;34232;42.502;26.014;2023-02-08T14:33:07;102273.00;;;3.44;41.13
48424;BME280;34232;42.502;26.014;2023-02-08T14:35:39;102272.16;;;3.42;40.58
48424;BME280;34232;42.502;26.014;2023-02-08T14:45:48;102268.34;;;3.11;41.93
48424;BME280;34232;42.502;26.014;2023-02-08T14:48:20;102279.56;;;3.16;42.44
48424;BME280;34232;42.502;26.014;2023-02-08T14:53:55;102269.16;;;3.16;43.00
48424;BME280;34232;42.502;26.014;2023-02-08T14:56:44;102273.69;;;3.03;44.02
48424;BME280;34232;42.502;26.014;2023-02-08T14:59:15;102280.69;;;3.00;44.37
48424;BME280;34232;42.502;26.014;2023-02-08T15:04:09;102277.28;;;2.93;44.15
48424;BME280;34232;42.502;26.014;2023-02-08T15:09:13;102286.81;;;2.96;43.93
48424;BME280;34232;42.502;26.014;2023-02-08T15:11:41;102283.44;;;2.91;42.96
48424;BME280;34232;42.502;26.014;2023-02-08T15:14:16;102282.59;;;2.89;43.27
48424;BME280;34232;42.502;26.014;2023-02-08T15:16:43;102287.13;;;2.74;42.52
48424;BME280;34232;42.502;26.014;2023-02-08T15:19:19;102285.28;;;2.83;42.53
48424;BME280;34232;42.502;26.014;2023-02-08T15:21:45;102283.69;;;2.72;42.56
48424;BME280;34232;42.502;26.014;2023-02-08T15:24:22;102281.97;;;2.71;42.30
48424;BME280;34232;42.502;26.014;2023-02-08T15:26:50;102288.25;;;2.57;42.52